Airfield :
LOGIN :

Register | Disclaimer

   EN    FR    IT 

 










Legend :    VFR   Marginal VFR   IFR   Intensive IFR   Very Intensive IFR
Visi :
Ceiling :
>= 8 km
>= 3000ft
5 to 8 km
1000 to 3000 ft
1500m to 5 km
500 to 1000 ft
800 to 1500m
200 to 500 ft
< 800m
< 200 ft
Symbols :   Thunderstorms  Fog  Heavy snow  Heavy precipitations  Wind > 20 kt
SIGMETs :     Misc.  Thunderstorms  Icing  Turbulence  Mountain Waves  Volcanic Ashes







- Airport Elevation : 36 ft
- IATA code : LTQ
- Download approach charts


LFAT - Le Touquet

CURRENT METAR :
  • 171400Z AUTO 02011KT 360V060 9999 FEW036 18/10 Q1024 NOSIG

EXPIRED METARs :
  • 171330Z AUTO 35012KT 9999 FEW035 19/11 Q1024 NOSIG
  • 171300Z AUTO 34014KT 310V020 9999 SCT034 19/12 Q1024 NOSIG
  • 171230Z AUTO 36009KT 310V050 9999 SCT032 19/11 Q1024 NOSIG
  • 171200Z AUTO 35010KT 320V020 9999 FEW030 19/12 Q1024 NOSIG
  • 171130Z AUTO 35009KT 320V050 9999 BKN029 17/11 Q1024 NOSIG

TAF TAF LFAT
Valid from the 17 at 12:00 until the 17 at 21:00 UTC


171100Z 1712/1721 02007KT 9999 BKN030
ATIS : +33 3 21 06 62 84
No reported NOTAMs for that airfield.



MET'MAP, your aeronautical weather chart ! - Copyright ORBIFLY December 2007 - Disclaimer

ORBIFLY MET'MAP TEAM :

Programming & Development : Alexandra Zaïnal
Concept & Development : Baudouin d'Aumeries
Co-Development & Prog : Marc-Olivier Méhu
Technical & hardware support : Manuel Goepfert

Contact : metmap@orbifly.com




SOURCES & CREDITS :

   NOAA